Saturday, November 17, 2018, 3:36 PM GMT
Back to Local

CWEW, L'Assomption

Location: , , Canada Lat: 45.817
Local Time: 3:36 PM GMT (15:36 GMT) Lon: -73.433
Time Zone: GMT Elev: 68 ft

Show me the last for .
Show Decoded

2018-11-17 15:00 METAR CWEW 171500Z AUTO 22007KT 01/M02 RMK AO1 SOG 07 1022 SLP158 T00061017 =
2018-11-17 14:00 METAR CWEW 171400Z AUTO 23006KT M00/M02 RMK AO1 SOG 08 1031 SLP154 T10031024 =
2018-11-17 13:00 METAR CWEW 171300Z AUTO 23006KT M01/M03 RMK AO1 SOG 08 3035 SLP148 T10111029 =
2018-11-17 12:00 METAR CWEW 171200Z AUTO 24005KT M01/M03 RMK AO1 SOG 08 3034 SLP136 T10141032 =
2018-11-17 11:00 METAR CWEW 171100Z AUTO 24004KT M02/M04 RMK AO1 SOG 08 3026 SLP123 T10211037 =
2018-11-17 10:00 METAR CWEW 171000Z AUTO 24006KT M02/M04 RMK AO1 SOG 08 3022 SLP113 T10191036 =
2018-11-17 09:00 METAR CWEW 170900Z AUTO 25005KT M03/M04 RMK AO1 SOG 08 1022 SLP102 T10251038 =
2018-11-17 08:00 METAR CWEW 170800Z AUTO 24005KT M03/M04 RMK AO1 SOG 08 3018 SLP097 T10271041 =
2018-11-17 07:00 METAR CWEW 170700Z AUTO 22007KT M03/M05 RMK AO1 SOG 08 3017 SLP091 T10251048 =
2018-11-17 06:00 METAR CWEW 170600Z AUTO 19003KT M04/M05 RMK AO1 SOG 08 1014 SLP080 T10351049
                 50007 =
2018-11-17 05:00 METAR CWEW 170500Z AUTO 22005KT M04/M05 RMK AO1 SOG 08 3017 SLP079 T10401052
                 50007 =
2018-11-17 04:00 METAR CWEW 170400Z AUTO 22004KT M05/M06 RMK AO1 SOG 08 3015 SLP074 T10461055
                 50007 =
2018-11-17 03:00 METAR CWEW 170300Z AUTO 23001KT M05/M06 RMK AO1 SOG 08 3009 SLP066 T10501058
                 50007 =
2018-11-17 02:00 METAR CWEW 170200Z AUTO 31002KT M05/M05 RMK AO1 5PAST HR SOG 07 2008 SLP062
                 P0002 T10451054 50007 =
2018-11-17 01:00 METAR CWEW 170100Z AUTO 32002KT M05/M05 RMK AO1 2PAST HR SOG 08 3006 SLP059
                 P0001 T10451054 50002 =
2018-11-17 00:00 METAR CWEW 170000Z AUTO 33002KT M04/M05 RMK AO1 6PAST HR SOG 07 3003 SLP057
                 P0002 T10431052 50030 =
2018-11-16 23:00 METAR CWEW 162300Z AUTO 33003KT M04/M05 RMK AO1 2PAST HR SOG 03 5001 SLP054
                 P0001 T10421052 50024 =
2018-11-16 22:00 METAR CWEW 162200Z AUTO 35003KT M04/M05 RMK AO1 6PAST HR SOG 04 8002 SLP053
                 P0002 T10421052 50022 =
2018-11-16 21:00 METAR CWEW 162100Z AUTO 36003KT M04/M05 RMK AO1 7PAST HR SOG 06 6007 SLP054
                 P0003 T10401051 50016 =
2018-11-16 20:00 METAR CWEW 162000Z AUTO 03002KT M04/M05 RMK AO1 9PAST HR SOG 05 6017 SLP055
                 P0004 T10381050 50009 =
2018-11-16 19:00 METAR CWEW 161900Z AUTO 05005KT M04/M05 RMK AO1 SOG 05 6029 SLP055 T10351053 =
2018-11-16 18:00 METAR CWEW 161800Z AUTO 05007KT M04/M05 RMK AO1 2PAST HR SOG 05 8031 SLP061
                 P0001 T10361054 50026 =
2018-11-16 17:00 METAR CWEW 161700Z AUTO 02005KT M04/M06 RMK AO1 SOG 05 8026 SLP072 T10381058
                 50024 =
2018-11-16 16:00 METAR CWEW 161600Z AUTO 02008KT M05/M06 RMK AO1 7PAST HR SOG 05 6027 SLP084
                 P0003 T10461064 50024 =

Support USWX by starting your Amazon purchase here.